sensor_id;sensor_type;location;lat;lon;timestamp;P1;durP1;ratioP1;P2;durP2;ratioP2
36215;SDS011;22257;52.232;21.084;2022-08-19T00:00:28;13.70;;;9.53;;
36215;SDS011;22257;52.232;21.084;2022-08-19T00:02:56;21.00;;;9.53;;
36215;SDS011;22257;52.232;21.084;2022-08-19T00:05:23;23.65;;;9.30;;
36215;SDS011;22257;52.232;21.084;2022-08-19T00:07:49;16.73;;;9.73;;
36215;SDS011;22257;52.232;21.084;2022-08-19T00:10:15;27.25;;;10.18;;
36215;SDS011;22257;52.232;21.084;2022-08-19T00:12:43;16.10;;;9.63;;
36215;SDS011;22257;52.232;21.084;2022-08-19T00:15:10;18.45;;;9.43;;
36215;SDS011;22257;52.232;21.084;2022-08-19T00:17:38;21.05;;;9.93;;
36215;SDS011;22257;52.232;21.084;2022-08-19T00:20:06;17.90;;;9.68;;
36215;SDS011;22257;52.232;21.084;2022-08-19T00:22:33;16.42;;;9.68;;
36215;SDS011;22257;52.232;21.084;2022-08-19T00:25:00;21.87;;;9.90;;
36215;SDS011;22257;52.232;21.084;2022-08-19T00:27:26;14.20;;;9.53;;
36215;SDS011;22257;52.232;21.084;2022-08-19T00:29:53;19.45;;;10.08;;
36215;SDS011;22257;52.232;21.084;2022-08-19T00:32:20;17.10;;;9.68;;
36215;SDS011;22257;52.232;21.084;2022-08-19T00:34:46;17.00;;;10.43;;
36215;SDS011;22257;52.232;21.084;2022-08-19T00:37:12;17.05;;;9.50;;
36215;SDS011;22257;52.232;21.084;2022-08-19T00:39:39;22.85;;;10.32;;
36215;SDS011;22257;52.232;21.084;2022-08-19T00:42:05;20.12;;;10.10;;
36215;SDS011;22257;52.232;21.084;2022-08-19T00:44:32;18.07;;;10.18;;
36215;SDS011;22257;52.232;21.084;2022-08-19T00:46:58;20.48;;;10.25;;
36215;SDS011;22257;52.232;21.084;2022-08-19T00:52:07;14.03;;;9.98;;
36215;SDS011;22257;52.232;21.084;2022-08-19T00:54:36;18.40;;;9.70;;
36215;SDS011;22257;52.232;21.084;2022-08-19T00:57:06;25.32;;;10.60;;
36215;SDS011;22257;52.232;21.084;2022-08-19T00:59:35;20.05;;;10.55;;
36215;SDS011;22257;52.232;21.084;2022-08-19T01:02:04;21.00;;;10.60;;
36215;SDS011;22257;52.232;21.084;2022-08-19T01:04:30;21.12;;;10.50;;
36215;SDS011;22257;52.232;21.084;2022-08-19T01:06:56;23.10;;;10.55;;
36215;SDS011;22257;52.232;21.084;2022-08-19T01:09:24;16.12;;;10.75;;
36215;SDS011;22257;52.232;21.084;2022-08-19T01:11:51;17.25;;;10.68;;
36215;SDS011;22257;52.232;21.084;2022-08-19T01:14:18;15.58;;;10.32;;
36215;SDS011;22257;52.232;21.084;2022-08-19T01:16:45;18.98;;;10.93;;
36215;SDS011;22257;52.232;21.084;2022-08-19T01:19:15;23.15;;;10.82;;
36215;SDS011;22257;52.232;21.084;2022-08-19T01:21:55;17.48;;;10.43;;
36215;SDS011;22257;52.232;21.084;2022-08-19T01:24:23;14.23;;;9.90;;
36215;SDS011;22257;52.232;21.084;2022-08-19T01:26:49;15.08;;;9.93;;
36215;SDS011;22257;52.232;21.084;2022-08-19T01:29:16;17.45;;;9.90;;
36215;SDS011;22257;52.232;21.084;2022-08-19T01:31:42;21.93;;;10.13;;
36215;SDS011;22257;52.232;21.084;2022-08-19T01:34:08;20.48;;;10.20;;
36215;SDS011;22257;52.232;21.084;2022-08-19T01:36:37;22.30;;;10.38;;
36215;SDS011;22257;52.232;21.084;2022-08-19T01:39:08;16.10;;;9.88;;
36215;SDS011;22257;52.232;21.084;2022-08-19T01:41:37;18.62;;;9.95;;
36215;SDS011;22257;52.232;21.084;2022-08-19T01:44:04;18.35;;;10.28;;
36215;SDS011;22257;52.232;21.084;2022-08-19T01:46:32;18.07;;;9.95;;
36215;SDS011;22257;52.232;21.084;2022-08-19T01:48:58;19.45;;;10.03;;
36215;SDS011;22257;52.232;21.084;2022-08-19T01:51:26;20.60;;;10.18;;
36215;SDS011;22257;52.232;21.084;2022-08-19T01:53:53;18.35;;;10.78;;
36215;SDS011;22257;52.232;21.084;2022-08-19T01:56:19;17.05;;;10.25;;
36215;SDS011;22257;52.232;21.084;2022-08-19T01:58:51;22.13;;;10.40;;
36215;SDS011;22257;52.232;21.084;2022-08-19T02:01:19;13.50;;;9.58;;
36215;SDS011;22257;52.232;21.084;2022-08-19T02:03:45;19.57;;;10.55;;
36215;SDS011;22257;52.232;21.084;2022-08-19T02:06:12;17.73;;;10.70;;
36215;SDS011;22257;52.232;21.084;2022-08-19T02:08:39;16.57;;;10.72;;
36215;SDS011;22257;52.232;21.084;2022-08-19T02:11:05;14.58;;;10.23;;
36215;SDS011;22257;52.232;21.084;2022-08-19T02:13:33;18.67;;;10.48;;
36215;SDS011;22257;52.232;21.084;2022-08-19T02:16:00;19.92;;;10.65;;
36215;SDS011;22257;52.232;21.084;2022-08-19T02:18:26;23.73;;;10.30;;
36215;SDS011;22257;52.232;21.084;2022-08-19T02:20:52;17.07;;;10.20;;
36215;SDS011;22257;52.232;21.084;2022-08-19T02:23:18;16.82;;;10.43;;
36215;SDS011;22257;52.232;21.084;2022-08-19T02:25:45;16.05;;;10.72;;
36215;SDS011;22257;52.232;21.084;2022-08-19T02:28:13;18.45;;;10.35;;
36215;SDS011;22257;52.232;21.084;2022-08-19T02:30:40;19.60;;;10.08;;
36215;SDS011;22257;52.232;21.084;2022-08-19T02:33:07;13.30;;;10.03;;
36215;SDS011;22257;52.232;21.084;2022-08-19T02:35:34;22.00;;;10.00;;
36215;SDS011;22257;52.232;21.084;2022-08-19T02:38:00;22.22;;;9.90;;
36215;SDS011;22257;52.232;21.084;2022-08-19T02:40:49;14.55;;;9.83;;
36215;SDS011;22257;52.232;21.084;2022-08-19T02:43:19;13.93;;;9.98;;
36215;SDS011;22257;52.232;21.084;2022-08-19T02:45:46;16.37;;;10.10;;
36215;SDS011;22257;52.232;21.084;2022-08-19T02:48:22;13.88;;;10.03;;
36215;SDS011;22257;52.232;21.084;2022-08-19T02:50:46;15.28;;;9.75;;
36215;SDS011;22257;52.232;21.084;2022-08-19T02:53:14;16.45;;;9.78;;
36215;SDS011;22257;52.232;21.084;2022-08-19T02:55:44;22.80;;;10.30;;
36215;SDS011;22257;52.232;21.084;2022-08-19T02:58:12;17.12;;;10.18;;
36215;SDS011;22257;52.232;21.084;2022-08-19T03:00:43;21.33;;;9.98;;
36215;SDS011;22257;52.232;21.084;2022-08-19T03:03:14;17.77;;;10.08;;
36215;SDS011;22257;52.232;21.084;2022-08-19T03:05:41;15.23;;;10.88;;
36215;SDS011;22257;52.232;21.084;2022-08-19T03:08:08;21.57;;;10.32;;
36215;SDS011;22257;52.232;21.084;2022-08-19T03:10:40;22.22;;;10.45;;
36215;SDS011;22257;52.232;21.084;2022-08-19T03:13:15;16.48;;;10.45;;
36215;SDS011;22257;52.232;21.084;2022-08-19T03:15:42;20.45;;;11.05;;
36215;SDS011;22257;52.232;21.084;2022-08-19T03:18:10;16.50;;;10.20;;
36215;SDS011;22257;52.232;21.084;2022-08-19T03:20:51;17.77;;;10.65;;
36215;SDS011;22257;52.232;21.084;2022-08-19T03:23:20;24.50;;;11.33;;
36215;SDS011;22257;52.232;21.084;2022-08-19T03:25:47;21.52;;;10.23;;
36215;SDS011;22257;52.232;21.084;2022-08-19T03:28:15;21.93;;;10.35;;
36215;SDS011;22257;52.232;21.084;2022-08-19T03:30:42;23.35;;;10.72;;
36215;SDS011;22257;52.232;21.084;2022-08-19T03:33:11;17.40;;;10.68;;
36215;SDS011;22257;52.232;21.084;2022-08-19T03:35:40;20.50;;;10.45;;
36215;SDS011;22257;52.232;21.084;2022-08-19T03:38:06;20.50;;;10.48;;
36215;SDS011;22257;52.232;21.084;2022-08-19T03:40:32;17.52;;;10.30;;
36215;SDS011;22257;52.232;21.084;2022-08-19T03:43:02;21.90;;;11.10;;
36215;SDS011;22257;52.232;21.084;2022-08-19T03:45:28;18.32;;;10.30;;
36215;SDS011;22257;52.232;21.084;2022-08-19T03:47:54;21.42;;;11.15;;
36215;SDS011;22257;52.232;21.084;2022-08-19T03:50:21;19.50;;;10.20;;
36215;SDS011;22257;52.232;21.084;2022-08-19T03:52:48;15.30;;;10.32;;
36215;SDS011;22257;52.232;21.084;2022-08-19T03:55:17;21.55;;;10.43;;
36215;SDS011;22257;52.232;21.084;2022-08-19T03:57:44;19.55;;;10.98;;
36215;SDS011;22257;52.232;21.084;2022-08-19T04:00:11;22.37;;;10.08;;
36215;SDS011;22257;52.232;21.084;2022-08-19T04:02:38;17.23;;;10.40;;
36215;SDS011;22257;52.232;21.084;2022-08-19T04:05:05;15.32;;;10.30;;
36215;SDS011;22257;52.232;21.084;2022-08-19T04:07:33;17.62;;;10.48;;
36215;SDS011;22257;52.232;21.084;2022-08-19T04:09:59;18.92;;;9.95;;
36215;SDS011;22257;52.232;21.084;2022-08-19T04:12:25;21.17;;;10.15;;
36215;SDS011;22257;52.232;21.084;2022-08-19T04:14:52;17.42;;;10.38;;
36215;SDS011;22257;52.232;21.084;2022-08-19T04:17:19;25.70;;;10.75;;
36215;SDS011;22257;52.232;21.084;2022-08-19T04:19:45;22.25;;;11.25;;
36215;SDS011;22257;52.232;21.084;2022-08-19T04:22:11;14.60;;;10.82;;
36215;SDS011;22257;52.232;21.084;2022-08-19T04:24:37;17.65;;;10.82;;
36215;SDS011;22257;52.232;21.084;2022-08-19T04:27:03;21.52;;;11.83;;
36215;SDS011;22257;52.232;21.084;2022-08-19T04:29:31;14.15;;;10.50;;
36215;SDS011;22257;52.232;21.084;2022-08-19T04:31:58;24.00;;;11.28;;
36215;SDS011;22257;52.232;21.084;2022-08-19T04:34:27;13.03;;;10.20;;
36215;SDS011;22257;52.232;21.084;2022-08-19T04:36:56;15.50;;;9.88;;
36215;SDS011;22257;52.232;21.084;2022-08-19T04:39:25;16.67;;;11.00;;
36215;SDS011;22257;52.232;21.084;2022-08-19T04:41:55;20.08;;;10.38;;
36215;SDS011;22257;52.232;21.084;2022-08-19T04:44:40;19.67;;;10.32;;
36215;SDS011;22257;52.232;21.084;2022-08-19T04:47:06;18.87;;;9.85;;
36215;SDS011;22257;52.232;21.084;2022-08-19T04:49:32;13.58;;;8.95;;
36215;SDS011;22257;52.232;21.084;2022-08-19T04:51:59;12.82;;;9.48;;
36215;SDS011;22257;52.232;21.084;2022-08-19T04:54:25;19.40;;;10.00;;
36215;SDS011;22257;52.232;21.084;2022-08-19T04:56:52;14.75;;;9.38;;
36215;SDS011;22257;52.232;21.084;2022-08-19T04:59:18;18.75;;;8.95;;
36215;SDS011;22257;52.232;21.084;2022-08-19T05:01:46;19.95;;;9.93;;
36215;SDS011;22257;52.232;21.084;2022-08-19T05:04:17;20.23;;;9.05;;
36215;SDS011;22257;52.232;21.084;2022-08-19T05:06:45;15.53;;;9.00;;
36215;SDS011;22257;52.232;21.084;2022-08-19T05:09:13;16.30;;;9.10;;
36215;SDS011;22257;52.232;21.084;2022-08-19T05:11:40;15.93;;;9.00;;
36215;SDS011;22257;52.232;21.084;2022-08-19T05:14:07;15.63;;;8.55;;
36215;SDS011;22257;52.232;21.084;2022-08-19T05:16:33;22.32;;;9.20;;
36215;SDS011;22257;52.232;21.084;2022-08-19T05:19:00;18.00;;;9.00;;
36215;SDS011;22257;52.232;21.084;2022-08-19T05:21:45;13.08;;;8.88;;
36215;SDS011;22257;52.232;21.084;2022-08-19T05:24:30;16.00;;;8.40;;
36215;SDS011;22257;52.232;21.084;2022-08-19T05:26:58;16.93;;;8.63;;
36215;SDS011;22257;52.232;21.084;2022-08-19T05:29:26;21.12;;;8.30;;
36215;SDS011;22257;52.232;21.084;2022-08-19T05:31:53;16.75;;;8.75;;
36215;SDS011;22257;52.232;21.084;2022-08-19T05:34:21;17.70;;;8.53;;
36215;SDS011;22257;52.232;21.084;2022-08-19T05:36:51;17.45;;;8.73;;
36215;SDS011;22257;52.232;21.084;2022-08-19T05:39:23;18.55;;;9.13;;
36215;SDS011;22257;52.232;21.084;2022-08-19T05:41:53;20.43;;;8.78;;
36215;SDS011;22257;52.232;21.084;2022-08-19T05:44:28;17.05;;;8.63;;
36215;SDS011;22257;52.232;21.084;2022-08-19T05:46:52;20.92;;;8.45;;
36215;SDS011;22257;52.232;21.084;2022-08-19T05:49:20;19.77;;;8.33;;
36215;SDS011;22257;52.232;21.084;2022-08-19T05:51:48;15.53;;;8.27;;
36215;SDS011;22257;52.232;21.084;2022-08-19T05:54:15;17.02;;;8.60;;
36215;SDS011;22257;52.232;21.084;2022-08-19T05:56:43;16.05;;;8.98;;
36215;SDS011;22257;52.232;21.084;2022-08-19T05:59:10;13.43;;;8.45;;
36215;SDS011;22257;52.232;21.084;2022-08-19T06:01:37;15.08;;;8.13;;
36215;SDS011;22257;52.232;21.084;2022-08-19T06:04:06;24.80;;;8.27;;
36215;SDS011;22257;52.232;21.084;2022-08-19T06:06:33;15.40;;;8.48;;
36215;SDS011;22257;52.232;21.084;2022-08-19T06:09:01;21.85;;;9.00;;
36215;SDS011;22257;52.232;21.084;2022-08-19T06:11:37;11.65;;;8.25;;
36215;SDS011;22257;52.232;21.084;2022-08-19T06:14:06;24.07;;;8.78;;
36215;SDS011;22257;52.232;21.084;2022-08-19T06:16:35;14.93;;;7.97;;
36215;SDS011;22257;52.232;21.084;2022-08-19T06:19:05;23.32;;;8.55;;
36215;SDS011;22257;52.232;21.084;2022-08-19T06:21:33;13.65;;;7.78;;
36215;SDS011;22257;52.232;21.084;2022-08-19T06:24:03;20.43;;;8.15;;
36215;SDS011;22257;52.232;21.084;2022-08-19T06:26:37;17.87;;;7.83;;
36215;SDS011;22257;52.232;21.084;2022-08-19T06:29:05;16.23;;;7.22;;
36215;SDS011;22257;52.232;21.084;2022-08-19T06:31:34;15.55;;;7.22;;
36215;SDS011;22257;52.232;21.084;2022-08-19T06:34:03;30.00;;;7.95;;
36215;SDS011;22257;52.232;21.084;2022-08-19T06:36:32;14.10;;;7.40;;
36215;SDS011;22257;52.232;21.084;2022-08-19T06:39:03;13.65;;;7.33;;
36215;SDS011;22257;52.232;21.084;2022-08-19T06:41:37;13.03;;;7.35;;
36215;SDS011;22257;52.232;21.084;2022-08-19T06:44:05;21.77;;;7.72;;
36215;SDS011;22257;52.232;21.084;2022-08-19T06:46:31;13.70;;;7.30;;
36215;SDS011;22257;52.232;21.084;2022-08-19T06:48:58;14.33;;;7.45;;
36215;SDS011;22257;52.232;21.084;2022-08-19T06:51:26;13.88;;;7.83;;
36215;SDS011;22257;52.232;21.084;2022-08-19T06:53:53;18.17;;;7.80;;
36215;SDS011;22257;52.232;21.084;2022-08-19T06:56:21;11.28;;;7.10;;
36215;SDS011;22257;52.232;21.084;2022-08-19T06:58:50;14.33;;;8.00;;
36215;SDS011;22257;52.232;21.084;2022-08-19T07:01:19;17.15;;;7.25;;
36215;SDS011;22257;52.232;21.084;2022-08-19T07:03:45;14.20;;;7.85;;
36215;SDS011;22257;52.232;21.084;2022-08-19T07:06:13;19.20;;;7.97;;
36215;SDS011;22257;52.232;21.084;2022-08-19T07:08:43;13.55;;;7.60;;
36215;SDS011;22257;52.232;21.084;2022-08-19T07:11:12;16.20;;;8.10;;
36215;SDS011;22257;52.232;21.084;2022-08-19T07:13:41;12.73;;;7.80;;
36215;SDS011;22257;52.232;21.084;2022-08-19T07:16:10;12.55;;;7.42;;
36215;SDS011;22257;52.232;21.084;2022-08-19T07:21:10;13.65;;;7.28;;
36215;SDS011;22257;52.232;21.084;2022-08-19T07:26:07;21.25;;;7.95;;
36215;SDS011;22257;52.232;21.084;2022-08-19T07:28:33;16.75;;;7.37;;
36215;SDS011;22257;52.232;21.084;2022-08-19T07:31:00;14.85;;;7.50;;
36215;SDS011;22257;52.232;21.084;2022-08-19T07:33:27;16.85;;;7.72;;
36215;SDS011;22257;52.232;21.084;2022-08-19T07:35:55;18.35;;;7.72;;
36215;SDS011;22257;52.232;21.084;2022-08-19T07:38:21;15.85;;;7.90;;
36215;SDS011;22257;52.232;21.084;2022-08-19T07:40:47;15.18;;;7.97;;
36215;SDS011;22257;52.232;21.084;2022-08-19T07:43:13;15.72;;;7.80;;
36215;SDS011;22257;52.232;21.084;2022-08-19T07:45:41;20.90;;;8.05;;
36215;SDS011;22257;52.232;21.084;2022-08-19T07:48:08;13.48;;;7.53;;
36215;SDS011;22257;52.232;21.084;2022-08-19T07:50:34;16.40;;;7.80;;
36215;SDS011;22257;52.232;21.084;2022-08-19T07:53:00;18.10;;;8.00;;
36215;SDS011;22257;52.232;21.084;2022-08-19T07:55:26;17.35;;;7.67;;
36215;SDS011;22257;52.232;21.084;2022-08-19T07:57:52;10.40;;;6.97;;
36215;SDS011;22257;52.232;21.084;2022-08-19T08:00:19;13.18;;;8.10;;
36215;SDS011;22257;52.232;21.084;2022-08-19T08:02:45;12.43;;;7.37;;
36215;SDS011;22257;52.232;21.084;2022-08-19T08:05:11;18.05;;;7.40;;
36215;SDS011;22257;52.232;21.084;2022-08-19T08:07:56;15.03;;;7.50;;
36215;SDS011;22257;52.232;21.084;2022-08-19T08:10:41;14.18;;;7.05;;
36215;SDS011;22257;52.232;21.084;2022-08-19T08:13:07;14.65;;;7.33;;
36215;SDS011;22257;52.232;21.084;2022-08-19T08:15:34;16.62;;;7.50;;
36215;SDS011;22257;52.232;21.084;2022-08-19T08:18:02;12.80;;;6.92;;
36215;SDS011;22257;52.232;21.084;2022-08-19T08:20:28;12.40;;;6.97;;
36215;SDS011;22257;52.232;21.084;2022-08-19T08:22:55;14.10;;;6.87;;
36215;SDS011;22257;52.232;21.084;2022-08-19T08:25:40;11.55;;;6.90;;
36215;SDS011;22257;52.232;21.084;2022-08-19T08:28:06;14.10;;;7.03;;
36215;SDS011;22257;52.232;21.084;2022-08-19T08:30:34;14.00;;;7.25;;
36215;SDS011;22257;52.232;21.084;2022-08-19T08:33:02;15.15;;;7.15;;
36215;SDS011;22257;52.232;21.084;2022-08-19T08:35:28;21.80;;;7.17;;
36215;SDS011;22257;52.232;21.084;2022-08-19T08:37:55;13.08;;;6.83;;
36215;SDS011;22257;52.232;21.084;2022-08-19T08:43:21;15.85;;;7.10;;
36215;SDS011;22257;52.232;21.084;2022-08-19T08:45:59;20.60;;;7.15;;
36215;SDS011;22257;52.232;21.084;2022-08-19T08:50:59;15.72;;;6.62;;
36215;SDS011;22257;52.232;21.084;2022-08-19T08:53:28;15.25;;;7.80;;
36215;SDS011;22257;52.232;21.084;2022-08-19T08:55:57;15.08;;;6.67;;
36215;SDS011;22257;52.232;21.084;2022-08-19T08:58:28;20.10;;;6.62;;
36215;SDS011;22257;52.232;21.084;2022-08-19T09:03:24;11.73;;;6.70;;
36215;SDS011;22257;52.232;21.084;2022-08-19T09:05:56;21.95;;;7.87;;
36215;SDS011;22257;52.232;21.084;2022-08-19T09:11:29;19.00;;;6.95;;
36215;SDS011;22257;52.232;21.084;2022-08-19T09:14:08;14.18;;;6.40;;
36215;SDS011;22257;52.232;21.084;2022-08-19T09:16:47;15.15;;;6.62;;
36215;SDS011;22257;52.232;21.084;2022-08-19T09:19:15;17.87;;;6.62;;
36215;SDS011;22257;52.232;21.084;2022-08-19T09:21:43;14.28;;;6.67;;
36215;SDS011;22257;52.232;21.084;2022-08-19T09:24:09;16.75;;;7.08;;
36215;SDS011;22257;52.232;21.084;2022-08-19T09:26:35;14.05;;;6.28;;
36215;SDS011;22257;52.232;21.084;2022-08-19T09:29:01;11.05;;;6.45;;
36215;SDS011;22257;52.232;21.084;2022-08-19T09:31:29;15.80;;;6.58;;
36215;SDS011;22257;52.232;21.084;2022-08-19T09:33:58;15.80;;;6.53;;
36215;SDS011;22257;52.232;21.084;2022-08-19T09:36:26;16.75;;;6.75;;
36215;SDS011;22257;52.232;21.084;2022-08-19T09:38:59;14.73;;;6.50;;
36215;SDS011;22257;52.232;21.084;2022-08-19T09:41:28;15.40;;;6.62;;
36215;SDS011;22257;52.232;21.084;2022-08-19T09:43:55;14.05;;;6.37;;
36215;SDS011;22257;52.232;21.084;2022-08-19T09:46:23;17.15;;;6.42;;
36215;SDS011;22257;52.232;21.084;2022-08-19T09:48:52;10.10;;;5.62;;
36215;SDS011;22257;52.232;21.084;2022-08-19T09:51:21;9.55;;;6.03;;
36215;SDS011;22257;52.232;21.084;2022-08-19T09:53:49;18.00;;;6.22;;
36215;SDS011;22257;52.232;21.084;2022-08-19T09:56:17;13.88;;;6.05;;
36215;SDS011;22257;52.232;21.084;2022-08-19T09:58:44;14.53;;;6.70;;
36215;SDS011;22257;52.232;21.084;2022-08-19T10:01:20;12.85;;;5.97;;
36215;SDS011;22257;52.232;21.084;2022-08-19T10:03:46;14.23;;;6.40;;
36215;SDS011;22257;52.232;21.084;2022-08-19T10:06:14;9.70;;;5.37;;
36215;SDS011;22257;52.232;21.084;2022-08-19T10:08:42;13.45;;;5.35;;
36215;SDS011;22257;52.232;21.084;2022-08-19T10:11:08;13.60;;;5.70;;
36215;SDS011;22257;52.232;21.084;2022-08-19T10:13:35;25.77;;;6.62;;
36215;SDS011;22257;52.232;21.084;2022-08-19T10:16:11;14.03;;;5.85;;
36215;SDS011;22257;52.232;21.084;2022-08-19T10:18:39;15.95;;;5.55;;
36215;SDS011;22257;52.232;21.084;2022-08-19T10:21:09;15.83;;;5.87;;
36215;SDS011;22257;52.232;21.084;2022-08-19T10:23:38;18.40;;;5.87;;
36215;SDS011;22257;52.232;21.084;2022-08-19T10:26:08;12.47;;;5.40;;
36215;SDS011;22257;52.232;21.084;2022-08-19T10:28:35;14.58;;;5.33;;
36215;SDS011;22257;52.232;21.084;2022-08-19T10:31:08;19.00;;;5.33;;
36215;SDS011;22257;52.232;21.084;2022-08-19T10:33:36;15.40;;;5.53;;
36215;SDS011;22257;52.232;21.084;2022-08-19T10:36:08;11.45;;;5.28;;
36215;SDS011;22257;52.232;21.084;2022-08-19T10:38:33;11.85;;;5.28;;
36215;SDS011;22257;52.232;21.084;2022-08-19T10:41:06;18.15;;;5.67;;
36215;SDS011;22257;52.232;21.084;2022-08-19T10:43:37;13.88;;;5.45;;
36215;SDS011;22257;52.232;21.084;2022-08-19T10:46:06;25.52;;;5.42;;
36215;SDS011;22257;52.232;21.084;2022-08-19T10:48:34;15.55;;;5.42;;
36215;SDS011;22257;52.232;21.084;2022-08-19T10:51:00;11.18;;;5.15;;
36215;SDS011;22257;52.232;21.084;2022-08-19T10:53:46;15.58;;;5.15;;
36215;SDS011;22257;52.232;21.084;2022-08-19T10:56:12;15.35;;;5.35;;
36215;SDS011;22257;52.232;21.084;2022-08-19T10:58:57;20.77;;;5.70;;
36215;SDS011;22257;52.232;21.084;2022-08-19T11:01:24;8.95;;;5.35;;
36215;SDS011;22257;52.232;21.084;2022-08-19T11:03:52;11.18;;;5.15;;
36215;SDS011;22257;52.232;21.084;2022-08-19T11:06:19;15.88;;;5.25;;
36215;SDS011;22257;52.232;21.084;2022-08-19T11:08:46;9.85;;;4.75;;
36215;SDS011;22257;52.232;21.084;2022-08-19T11:11:12;20.25;;;5.30;;
36215;SDS011;22257;52.232;21.084;2022-08-19T11:13:40;12.95;;;5.03;;
36215;SDS011;22257;52.232;21.084;2022-08-19T11:16:08;13.45;;;5.33;;
36215;SDS011;22257;52.232;21.084;2022-08-19T11:18:37;12.03;;;5.10;;
36215;SDS011;22257;52.232;21.084;2022-08-19T11:21:20;18.73;;;5.25;;
36215;SDS011;22257;52.232;21.084;2022-08-19T11:23:55;8.68;;;4.83;;
36215;SDS011;22257;52.232;21.084;2022-08-19T11:26:23;13.95;;;4.95;;
36215;SDS011;22257;52.232;21.084;2022-08-19T11:28:50;13.68;;;4.80;;
36215;SDS011;22257;52.232;21.084;2022-08-19T11:31:19;15.60;;;5.80;;
36215;SDS011;22257;52.232;21.084;2022-08-19T11:33:47;19.27;;;5.03;;
36215;SDS011;22257;52.232;21.084;2022-08-19T11:36:17;16.85;;;5.08;;
36215;SDS011;22257;52.232;21.084;2022-08-19T11:38:44;9.00;;;4.58;;
36215;SDS011;22257;52.232;21.084;2022-08-19T11:41:14;13.38;;;5.00;;
36215;SDS011;22257;52.232;21.084;2022-08-19T11:43:43;17.40;;;5.28;;
36215;SDS011;22257;52.232;21.084;2022-08-19T11:46:13;14.93;;;5.17;;
36215;SDS011;22257;52.232;21.084;2022-08-19T11:48:40;14.15;;;5.03;;
36215;SDS011;22257;52.232;21.084;2022-08-19T11:51:11;12.65;;;4.90;;
36215;SDS011;22257;52.232;21.084;2022-08-19T11:53:39;20.00;;;4.97;;
36215;SDS011;22257;52.232;21.084;2022-08-19T11:56:06;16.07;;;4.95;;
36215;SDS011;22257;52.232;21.084;2022-08-19T11:58:34;13.50;;;4.87;;
36215;SDS011;22257;52.232;21.084;2022-08-19T12:01:04;9.38;;;4.50;;
36215;SDS011;22257;52.232;21.084;2022-08-19T12:03:44;11.33;;;4.60;;
36215;SDS011;22257;52.232;21.084;2022-08-19T12:06:13;17.42;;;4.90;;
36215;SDS011;22257;52.232;21.084;2022-08-19T12:08:42;12.75;;;4.33;;
36215;SDS011;22257;52.232;21.084;2022-08-19T12:11:10;11.20;;;4.65;;
36215;SDS011;22257;52.232;21.084;2022-08-19T12:13:39;16.60;;;4.58;;
36215;SDS011;22257;52.232;21.084;2022-08-19T12:16:13;17.67;;;4.78;;
36215;SDS011;22257;52.232;21.084;2022-08-19T12:18:42;7.05;;;4.35;;
36215;SDS011;22257;52.232;21.084;2022-08-19T12:21:11;18.60;;;4.80;;
36215;SDS011;22257;52.232;21.084;2022-08-19T12:23:40;16.37;;;4.60;;
36215;SDS011;22257;52.232;21.084;2022-08-19T12:26:08;12.73;;;4.80;;
36215;SDS011;22257;52.232;21.084;2022-08-19T12:28:35;16.07;;;4.58;;
36215;SDS011;22257;52.232;21.084;2022-08-19T12:31:02;13.85;;;4.53;;
36215;SDS011;22257;52.232;21.084;2022-08-19T12:33:28;11.75;;;4.75;;
36215;SDS011;22257;52.232;21.084;2022-08-19T12:35:55;9.40;;;4.30;;
36215;SDS011;22257;52.232;21.084;2022-08-19T12:38:25;11.40;;;4.40;;
36215;SDS011;22257;52.232;21.084;2022-08-19T12:40:51;12.20;;;4.67;;
36215;SDS011;22257;52.232;21.084;2022-08-19T12:43:18;12.68;;;4.53;;
36215;SDS011;22257;52.232;21.084;2022-08-19T12:45:46;13.50;;;4.92;;
36215;SDS011;22257;52.232;21.084;2022-08-19T12:48:12;13.95;;;4.53;;
36215;SDS011;22257;52.232;21.084;2022-08-19T12:50:40;12.28;;;4.70;;
36215;SDS011;22257;52.232;21.084;2022-08-19T12:53:07;15.10;;;4.80;;
36215;SDS011;22257;52.232;21.084;2022-08-19T12:55:34;11.50;;;4.35;;
36215;SDS011;22257;52.232;21.084;2022-08-19T12:58:00;8.90;;;4.15;;
36215;SDS011;22257;52.232;21.084;2022-08-19T13:00:29;11.33;;;4.17;;
36215;SDS011;22257;52.232;21.084;2022-08-19T13:02:58;16.37;;;4.30;;
36215;SDS011;22257;52.232;21.084;2022-08-19T13:05:26;10.20;;;4.30;;
36215;SDS011;22257;52.232;21.084;2022-08-19T13:07:55;12.68;;;4.95;;
36215;SDS011;22257;52.232;21.084;2022-08-19T13:10:24;12.15;;;3.95;;
36215;SDS011;22257;52.232;21.084;2022-08-19T13:12:53;12.88;;;4.55;;
36215;SDS011;22257;52.232;21.084;2022-08-19T13:15:21;12.00;;;4.85;;
36215;SDS011;22257;52.232;21.084;2022-08-19T13:17:49;11.63;;;4.47;;
36215;SDS011;22257;52.232;21.084;2022-08-19T13:20:17;11.70;;;4.10;;
36215;SDS011;22257;52.232;21.084;2022-08-19T13:22:46;14.67;;;4.03;;
36215;SDS011;22257;52.232;21.084;2022-08-19T13:25:14;20.27;;;4.42;;
36215;SDS011;22257;52.232;21.084;2022-08-19T13:27:43;16.32;;;4.28;;
36215;SDS011;22257;52.232;21.084;2022-08-19T13:30:10;12.80;;;4.80;;
36215;SDS011;22257;52.232;21.084;2022-08-19T13:32:56;13.60;;;4.25;;
36215;SDS011;22257;52.232;21.084;2022-08-19T13:35:38;18.37;;;4.30;;
36215;SDS011;22257;52.232;21.084;2022-08-19T13:38:10;12.40;;;4.10;;
36215;SDS011;22257;52.232;21.084;2022-08-19T13:40:39;9.58;;;4.80;;
36215;SDS011;22257;52.232;21.084;2022-08-19T13:43:06;14.18;;;4.53;;
36215;SDS011;22257;52.232;21.084;2022-08-19T13:45:33;11.90;;;3.95;;
36215;SDS011;22257;52.232;21.084;2022-08-19T13:48:01;8.35;;;4.12;;
36215;SDS011;22257;52.232;21.084;2022-08-19T13:50:32;13.38;;;4.17;;
36215;SDS011;22257;52.232;21.084;2022-08-19T13:53:00;9.88;;;4.42;;
36215;SDS011;22257;52.232;21.084;2022-08-19T13:55:27;18.17;;;4.58;;
36215;SDS011;22257;52.232;21.084;2022-08-19T13:57:54;10.60;;;3.92;;
36215;SDS011;22257;52.232;21.084;2022-08-19T14:00:23;15.80;;;4.12;;
36215;SDS011;22257;52.232;21.084;2022-08-19T14:02:52;18.32;;;4.55;;
36215;SDS011;22257;52.232;21.084;2022-08-19T14:05:22;16.32;;;3.90;;
36215;SDS011;22257;52.232;21.084;2022-08-19T14:07:49;11.38;;;3.90;;
36215;SDS011;22257;52.232;21.084;2022-08-19T14:10:16;17.32;;;3.80;;
36215;SDS011;22257;52.232;21.084;2022-08-19T14:12:44;12.15;;;4.15;;
36215;SDS011;22257;52.232;21.084;2022-08-19T14:15:11;13.53;;;4.12;;
36215;SDS011;22257;52.232;21.084;2022-08-19T14:17:39;13.95;;;3.75;;
36215;SDS011;22257;52.232;21.084;2022-08-19T14:20:07;11.75;;;4.30;;
36215;SDS011;22257;52.232;21.084;2022-08-19T14:22:36;13.48;;;4.05;;
36215;SDS011;22257;52.232;21.084;2022-08-19T14:25:03;18.20;;;4.62;;
36215;SDS011;22257;52.232;21.084;2022-08-19T14:27:35;18.82;;;4.28;;
36215;SDS011;22257;52.232;21.084;2022-08-19T14:30:03;19.67;;;4.50;;
36215;SDS011;22257;52.232;21.084;2022-08-19T14:32:32;10.38;;;3.72;;
36215;SDS011;22257;52.232;21.084;2022-08-19T14:35:00;20.15;;;4.35;;
36215;SDS011;22257;52.232;21.084;2022-08-19T14:37:29;15.55;;;4.20;;
36215;SDS011;22257;52.232;21.084;2022-08-19T14:39:56;18.57;;;4.37;;
36215;SDS011;22257;52.232;21.084;2022-08-19T14:42:22;12.15;;;4.00;;
36215;SDS011;22257;52.232;21.084;2022-08-19T14:44:48;12.65;;;4.33;;